createdAt,value
2023-06-07T00:00:59.132Z,102049.78
2023-06-07T00:03:46.532Z,102051.78
2023-06-07T00:06:33.879Z,102047.69
2023-06-07T00:09:21.130Z,102050.50
2023-06-07T00:12:08.168Z,102041.91
2023-06-07T00:14:55.449Z,102017.94
2023-06-07T00:17:42.713Z,102067.06
2023-06-07T00:20:30.405Z,102054.91
2023-06-07T00:23:17.363Z,102062.09
2023-06-07T00:26:05.293Z,102062.31
2023-06-07T00:28:52.268Z,102062.47
2023-06-07T00:31:39.481Z,102065.34
2023-06-07T00:34:26.703Z,102057.56
2023-06-07T00:37:13.945Z,102062.97
2023-06-07T00:40:01.158Z,102062.31
2023-06-07T00:42:48.449Z,102066.06
2023-06-07T00:45:35.628Z,102064.50
2023-06-07T00:48:23.340Z,102063.75
2023-06-07T00:51:10.964Z,102057.66
2023-06-07T00:53:58.533Z,102071.97
2023-06-07T00:56:45.608Z,102073.84
2023-06-07T00:59:33.156Z,102071.28
2023-06-07T01:02:20.525Z,102073.22
2023-06-07T01:05:07.978Z,102066.28
2023-06-07T01:07:55.010Z,102067.34
2023-06-07T01:10:42.587Z,102075.34
2023-06-07T01:13:30.956Z,102070.16
2023-06-07T01:16:19.237Z,102066.69
2023-06-07T01:19:07.006Z,102075.69
2023-06-07T01:21:58.617Z,102078.50
2023-06-07T01:24:45.663Z,102076.81
2023-06-07T01:27:32.835Z,102072.47
2023-06-07T01:30:20.387Z,102072.59
2023-06-07T01:33:09.063Z,102025.56
2023-06-07T01:35:56.174Z,102070.13
2023-06-07T01:38:44.689Z,102076.38
2023-06-07T01:41:32.823Z,102077.38
2023-06-07T01:44:20.848Z,102078.41
2023-06-07T01:47:08.689Z,102087.31
2023-06-07T01:49:55.751Z,102083.00
2023-06-07T01:52:42.871Z,102089.28
2023-06-07T01:55:30.137Z,102084.06
2023-06-07T01:58:23.404Z,102084.97
2023-06-07T02:01:26.908Z,102082.41
2023-06-07T02:04:15.741Z,102081.56
2023-06-07T02:07:05.759Z,102086.03
2023-06-07T02:09:55.298Z,102088.72
2023-06-07T02:12:43.684Z,102083.50
2023-06-07T02:15:31.161Z,102081.66
2023-06-07T02:18:20.545Z,102056.59
2023-06-07T02:21:31.277Z,102088.91
2023-06-07T02:24:18.749Z,102081.81
2023-06-07T02:27:05.977Z,102086.28
2023-06-07T02:29:53.326Z,102087.19
2023-06-07T02:32:40.365Z,102089.00
2023-06-07T02:35:29.335Z,102080.19
2023-06-07T02:38:16.381Z,102085.50
2023-06-07T02:41:03.761Z,102082.06
2023-06-07T02:43:50.726Z,102090.88
2023-06-07T02:46:37.948Z,102097.06
2023-06-07T02:49:25.090Z,102097.13
2023-06-07T02:52:13.592Z,102097.16
2023-06-07T02:55:00.736Z,102098.94
2023-06-07T02:57:48.043Z,102090.13
2023-06-07T03:00:37.218Z,102093.63
2023-06-07T03:03:30.256Z,102083.00
2023-06-07T03:06:26.874Z,102065.63
2023-06-07T03:09:14.184Z,102095.34
2023-06-07T03:12:01.322Z,102094.50
2023-06-07T03:14:55.069Z,102099.81
2023-06-07T03:17:43.017Z,102100.66
2023-06-07T03:20:31.687Z,102105.88
2023-06-07T03:23:24.177Z,102099.66
2023-06-07T03:26:11.843Z,102090.75
2023-06-07T03:28:59.430Z,102092.50
2023-06-07T03:31:50.707Z,102090.69
2023-06-07T03:34:39.232Z,102087.09
2023-06-07T03:37:26.705Z,102083.56
2023-06-07T03:40:13.896Z,102085.25
2023-06-07T03:43:01.478Z,102082.59
2023-06-07T03:45:49.235Z,102084.31
2023-06-07T03:48:37.279Z,102086.03
2023-06-07T03:51:24.267Z,102084.16
2023-06-07T03:54:11.693Z,102089.34
2023-06-07T03:56:58.927Z,102085.69
2023-06-07T03:59:46.473Z,102086.50
2023-06-07T04:02:33.942Z,102082.81
2023-06-07T04:05:21.145Z,102080.09
2023-06-07T04:08:08.324Z,102083.53
2023-06-07T04:10:55.584Z,102095.81
2023-06-07T04:13:42.802Z,102093.06
2023-06-07T04:16:30.554Z,102101.78
2023-06-07T04:19:17.687Z,102092.84
2023-06-07T04:22:06.466Z,102083.09
2023-06-07T04:24:55.243Z,102092.63
2023-06-07T04:27:42.382Z,102087.22
2023-06-07T04:30:30.483Z,102090.72
2023-06-07T04:33:17.697Z,102096.81
2023-06-07T04:36:08.818Z,102086.09
2023-06-07T04:39:01.552Z,102086.91
2023-06-07T04:41:51.946Z,102085.03
2023-06-07T04:44:39.240Z,102087.50
2023-06-07T04:47:32.562Z,102090.91
2023-06-07T04:50:19.797Z,102088.13
2023-06-07T04:53:06.907Z,102089.66
2023-06-07T04:55:56.409Z,102081.53
2023-06-07T04:58:43.879Z,102092.00
2023-06-07T05:01:34.327Z,102095.38
2023-06-07T05:04:23.293Z,102071.28
2023-06-07T05:07:15.264Z,102085.34
2023-06-07T05:10:07.073Z,102074.00
2023-06-07T05:12:54.721Z,102092.97
2023-06-07T05:15:41.957Z,102084.84
2023-06-07T05:18:29.643Z,102089.13
2023-06-07T05:21:18.474Z,102081.84
2023-06-07T05:24:06.753Z,102097.66
2023-06-07T05:26:53.806Z,102089.56
2023-06-07T05:29:41.064Z,102088.50
2023-06-07T05:32:28.739Z,102094.53
2023-06-07T05:35:15.920Z,102070.56
2023-06-07T05:38:06.203Z,102077.25
2023-06-07T05:40:53.230Z,102074.41
2023-06-07T05:43:40.281Z,102076.00
2023-06-07T05:46:27.428Z,102071.41
2023-06-07T05:49:15.336Z,102075.69
2023-06-07T05:52:02.603Z,102078.16
2023-06-07T05:54:49.606Z,102089.47
2023-06-07T05:57:36.926Z,102083.09
2023-06-07T06:00:30.911Z,102039.53
2023-06-07T06:03:18.102Z,102079.16
2023-06-07T06:06:05.048Z,102078.03
2023-06-07T06:08:52.447Z,102077.88
2023-06-07T06:11:39.530Z,102075.94
2023-06-07T06:14:26.677Z,102084.63
2023-06-07T06:17:13.838Z,102084.34
2023-06-07T06:20:01.211Z,102080.63
2023-06-07T06:22:48.456Z,102089.34
2023-06-07T06:25:35.652Z,102087.38
2023-06-07T06:28:22.678Z,102095.16
2023-06-07T06:31:09.905Z,102091.38
2023-06-07T06:33:56.927Z,102089.41
2023-06-07T06:36:44.002Z,102096.28
2023-06-07T06:39:30.953Z,102089.00
2023-06-07T06:42:18.183Z,102088.81
2023-06-07T06:45:24.634Z,102100.19
2023-06-07T06:48:11.915Z,102099.06
2023-06-07T06:50:58.936Z,102089.97
2023-06-07T06:53:46.029Z,102092.47
2023-06-07T06:56:33.070Z,102088.72
2023-06-07T06:59:20.203Z,102084.09
2023-06-07T07:02:08.527Z,102092.69
2023-06-07T07:04:55.871Z,102091.59
2023-06-07T07:07:43.080Z,102090.53
2023-06-07T07:10:30.556Z,102087.72
2023-06-07T07:13:19.293Z,102101.88
2023-06-07T07:16:06.499Z,102099.91
2023-06-07T07:18:53.729Z,102101.50
2023-06-07T07:21:40.900Z,102094.31
2023-06-07T07:24:28.488Z,102087.00
2023-06-07T07:27:15.724Z,102087.75
2023-06-07T07:30:03.185Z,102090.31
2023-06-07T07:32:50.607Z,102092.78
2023-06-07T07:35:37.913Z,102088.25
2023-06-07T07:38:25.040Z,102089.91
2023-06-07T07:41:12.139Z,102083.53
2023-06-07T07:43:59.315Z,102088.75
2023-06-07T07:46:46.447Z,102086.72
2023-06-07T07:49:35.932Z,102081.19
2023-06-07T07:52:24.305Z,102079.13
2023-06-07T07:55:11.419Z,102081.66
2023-06-07T07:57:58.495Z,102071.84
2023-06-07T08:00:45.775Z,102085.69
2023-06-07T08:03:33.138Z,102090.03
2023-06-07T08:06:20.325Z,102075.63
2023-06-07T08:09:07.452Z,102079.13
2023-06-07T08:11:54.513Z,102079.13
2023-06-07T08:14:41.661Z,102073.84
2023-06-07T08:17:28.833Z,102080.56
2023-06-07T08:20:16.174Z,102082.34
2023-06-07T08:23:03.630Z,102083.00
2023-06-07T08:25:50.701Z,102078.28
2023-06-07T08:28:39.174Z,102078.09
2023-06-07T08:31:26.599Z,102078.81
2023-06-07T08:34:13.851Z,102084.84
2023-06-07T08:37:00.870Z,102075.72
2023-06-07T08:39:47.994Z,102080.00
2023-06-07T08:42:35.218Z,102072.69
2023-06-07T08:45:24.266Z,102072.50
2023-06-07T08:48:12.979Z,102076.72
2023-06-07T08:51:00.949Z,102075.50
2023-06-07T08:53:50.602Z,102064.59
2023-06-07T08:56:39.109Z,102063.78
2023-06-07T08:59:27.137Z,102077.09
2023-06-07T09:02:15.168Z,102041.69
2023-06-07T09:05:03.717Z,102058.56
2023-06-07T09:07:52.213Z,102047.88
2023-06-07T09:10:40.537Z,102053.66
2023-06-07T09:13:29.683Z,102050.69
2023-06-07T09:16:16.844Z,102055.75
2023-06-07T09:19:16.415Z,102049.13
2023-06-07T09:22:03.593Z,102024.63
2023-06-07T09:24:51.983Z,102022.22
2023-06-07T09:27:49.665Z,102033.25
2023-06-07T09:30:36.829Z,102032.94
2023-06-07T09:33:24.010Z,102037.75
2023-06-07T09:36:25.469Z,102036.53
2023-06-07T09:39:12.664Z,102028.31
2023-06-07T09:41:59.866Z,102030.28
2023-06-07T09:44:51.322Z,102022.66
2023-06-07T09:47:43.278Z,102023.13
2023-06-07T09:50:32.319Z,102016.19
2023-06-07T09:53:20.067Z,102014.53
2023-06-07T09:56:07.212Z,102023.84
2023-06-07T09:58:54.251Z,102024.28
2023-06-07T10:02:01.297Z,102014.09
2023-06-07T10:04:48.393Z,102007.13
2023-06-07T10:07:36.839Z,101999.38
2023-06-07T10:10:26.162Z,102006.63
2023-06-07T10:13:14.846Z,101994.78
2023-06-07T10:16:06.733Z,101990.25
2023-06-07T10:18:56.805Z,101992.38
2023-06-07T10:21:45.072Z,101993.66
2023-06-07T10:24:38.031Z,101987.63
2023-06-07T10:27:33.039Z,101987.44
2023-06-07T10:30:30.702Z,101986.72
2023-06-07T10:33:19.601Z,101984.50
2023-06-07T10:36:07.597Z,101985.88
2023-06-07T10:38:55.876Z,101972.59
2023-06-07T10:41:43.845Z,101980.81
2023-06-07T10:44:32.091Z,101971.13
2023-06-07T10:47:44.976Z,101958.38
2023-06-07T10:50:47.390Z,101954.66
2023-06-07T10:53:34.504Z,101952.69
2023-06-07T10:56:56.578Z,101951.56
2023-06-07T10:59:44.089Z,101929.34
2023-06-07T11:02:41.349Z,101948.91
2023-06-07T11:05:30.573Z,101945.28
2023-06-07T11:08:43.653Z,101944.66
2023-06-07T11:12:01.765Z,101952.44
2023-06-07T11:14:48.795Z,101939.06
2023-06-07T11:18:16.270Z,101943.78
2023-06-07T11:21:06.396Z,101942.72
2023-06-07T11:23:54.824Z,101936.09
2023-06-07T11:26:42.098Z,101949.72
2023-06-07T11:29:29.308Z,101951.16
2023-06-07T11:32:21.813Z,101938.63
2023-06-07T11:35:17.367Z,101929.16
2023-06-07T11:38:04.484Z,101929.56
2023-06-07T11:40:51.491Z,101918.75
2023-06-07T11:43:45.435Z,101919.09
2023-06-07T11:46:34.811Z,101924.69
2023-06-07T11:49:28.034Z,101923.00
2023-06-07T11:52:20.766Z,101913.22
2023-06-07T11:55:07.848Z,101916.91
2023-06-07T11:57:55.392Z,101902.78
2023-06-07T12:00:44.162Z,101910.94
2023-06-07T12:03:32.094Z,101909.47
2023-06-07T12:06:19.424Z,101907.22
2023-06-07T12:09:11.171Z,101906.38
2023-06-07T12:11:58.164Z,101912.78
2023-06-07T12:14:53.022Z,101905.81
2023-06-07T12:17:40.733Z,101907.41
2023-06-07T12:20:29.854Z,101898.31
2023-06-07T12:23:26.706Z,101904.47
2023-06-07T12:26:32.660Z,101899.56
2023-06-07T12:29:22.387Z,101884.41
2023-06-07T12:32:09.628Z,101896.22
2023-06-07T12:35:03.556Z,101898.44
2023-06-07T12:37:54.007Z,101896.34
2023-06-07T12:40:41.320Z,101891.28
2023-06-07T12:43:28.605Z,101882.19
2023-06-07T12:46:15.828Z,101896.97
2023-06-07T12:49:03.358Z,101881.09
2023-06-07T12:51:50.923Z,101854.84
2023-06-07T12:54:38.041Z,101861.88
2023-06-07T12:57:25.838Z,101873.94
2023-06-07T13:00:13.093Z,101876.03
2023-06-07T13:03:00.327Z,101863.03
2023-06-07T13:05:47.634Z,101864.34
2023-06-07T13:08:34.764Z,101862.56
2023-06-07T13:11:22.309Z,101854.97
2023-06-07T13:14:09.563Z,101858.91
2023-06-07T13:16:56.858Z,101815.81
2023-06-07T13:19:44.006Z,101843.38
2023-06-07T13:22:32.214Z,101842.84
2023-06-07T13:25:19.885Z,101846.41
2023-06-07T13:28:06.973Z,101849.00
2023-06-07T13:30:54.065Z,101845.00
2023-06-07T13:33:41.304Z,101847.78
2023-06-07T13:36:28.869Z,101848.75
2023-06-07T13:39:16.108Z,101831.84
2023-06-07T13:42:03.377Z,101827.50
2023-06-07T13:44:50.746Z,101837.34
2023-06-07T13:47:38.553Z,101809.03
2023-06-07T13:50:26.193Z,101827.47
2023-06-07T13:53:13.379Z,101836.78
2023-06-07T13:56:00.503Z,101826.31
2023-06-07T13:58:47.568Z,101836.81
2023-06-07T14:01:34.958Z,101841.84
2023-06-07T14:04:22.185Z,101837.88
2023-06-07T14:07:11.778Z,101829.72
2023-06-07T14:09:58.851Z,101824.34
2023-06-07T14:12:45.938Z,101823.06
2023-06-07T14:15:33.326Z,101824.56
2023-06-07T14:18:20.415Z,101824.47
2023-06-07T14:21:07.706Z,101828.38
2023-06-07T14:23:54.821Z,101817.16
2023-06-07T14:26:42.030Z,101821.19
2023-06-07T14:29:29.040Z,101826.69
2023-06-07T14:32:16.143Z,101832.31
2023-06-07T14:35:03.460Z,101828.63
2023-06-07T14:37:50.908Z,101819.75
2023-06-07T14:40:38.125Z,101821.63
2023-06-07T14:43:25.438Z,101822.47
2023-06-07T14:46:12.798Z,101810.06
2023-06-07T14:48:59.879Z,101815.25
2023-06-07T14:51:49.727Z,101819.97
2023-06-07T14:54:37.064Z,101812.88
2023-06-07T14:57:24.828Z,101796.56
2023-06-07T14:59:52.107Z,101812.22
2023-06-07T15:02:19.229Z,101812.22
2023-06-07T15:04:46.389Z,101779.44
2023-06-07T15:07:15.185Z,101813.94
2023-06-07T15:09:42.661Z,101819.13
2023-06-07T15:12:11.517Z,101804.78
2023-06-07T15:14:38.601Z,101811.13
2023-06-07T15:17:07.077Z,101808.41
2023-06-07T15:19:34.156Z,101798.63
2023-06-07T15:22:01.348Z,101810.28
2023-06-07T15:24:28.522Z,101803.13
2023-06-07T15:26:55.806Z,101802.53
2023-06-07T15:29:23.183Z,101770.03
2023-06-07T15:31:50.335Z,101812.03
2023-06-07T15:34:17.683Z,101815.66
2023-06-07T15:36:44.737Z,101809.19
2023-06-07T15:39:11.934Z,101812.63
2023-06-07T15:41:39.769Z,101803.19
2023-06-07T15:44:07.093Z,101806.44
2023-06-07T15:46:35.213Z,101803.84
2023-06-07T15:49:03.932Z,101797.72
2023-06-07T15:51:31.184Z,101799.63
2023-06-07T15:53:58.321Z,101792.84
2023-06-07T15:56:26.121Z,101798.66
2023-06-07T15:58:53.564Z,101797.59
2023-06-07T16:01:21.918Z,101800.41
2023-06-07T16:03:56.187Z,101794.63
2023-06-07T16:06:23.796Z,101797.53
2023-06-07T16:08:51.517Z,101795.50
2023-06-07T16:11:18.536Z,101806.28
2023-06-07T16:13:45.946Z,101802.81
2023-06-07T16:16:13.918Z,101800.75
2023-06-07T16:18:41.186Z,101807.75
2023-06-07T16:21:08.483Z,101794.25
2023-06-07T16:23:55.608Z,101795.84
2023-06-07T16:26:43.005Z,101787.78
2023-06-07T16:29:30.429Z,101769.88
2023-06-07T16:32:17.988Z,101766.88
2023-06-07T16:35:05.300Z,101786.66
2023-06-07T16:37:52.434Z,101781.16
2023-06-07T16:40:39.528Z,101772.22
2023-06-07T16:43:26.665Z,101781.66
2023-06-07T16:46:13.890Z,101776.81
2023-06-07T16:49:01.050Z,101779.38
2023-06-07T16:51:48.216Z,101776.75
2023-06-07T16:54:35.402Z,101774.69
2023-06-07T16:57:22.718Z,101768.53
2023-06-07T17:00:09.789Z,101752.88
2023-06-07T17:02:57.065Z,101776.25
2023-06-07T17:05:44.354Z,101770.03
2023-06-07T17:08:31.433Z,101774.44
2023-06-07T17:11:18.558Z,101773.56
2023-06-07T17:14:05.775Z,101787.91
2023-06-07T17:16:53.142Z,101775.34
2023-06-07T17:19:40.154Z,101773.88
2023-06-07T17:22:27.544Z,101783.50
2023-06-07T17:25:15.642Z,101782.72
2023-06-07T17:28:02.868Z,101779.81
2023-06-07T17:30:50.687Z,101781.34
2023-06-07T17:33:39.024Z,101780.78
2023-06-07T17:36:28.037Z,101779.16
2023-06-07T17:39:15.181Z,101786.41
2023-06-07T17:42:02.901Z,101757.38
2023-06-07T17:44:50.053Z,101787.56
2023-06-07T17:47:37.273Z,101778.03
2023-06-07T17:50:37.051Z,101773.75
2023-06-07T17:53:28.473Z,101767.91
2023-06-07T17:56:15.638Z,101784.63
2023-06-07T17:59:02.765Z,101778.56
2023-06-07T18:01:50.097Z,101775.53
2023-06-07T18:04:37.224Z,101779.91
2023-06-07T18:07:25.006Z,101776.31
2023-06-07T18:10:12.123Z,101776.19
2023-06-07T18:12:59.210Z,101779.38
2023-06-07T18:15:46.411Z,101779.66
2023-06-07T18:18:33.698Z,101774.56
2023-06-07T18:21:21.244Z,101763.31
2023-06-07T18:24:08.325Z,101774.78
2023-06-07T18:26:55.421Z,101774.41
2023-06-07T18:29:43.774Z,101774.63
2023-06-07T18:32:30.844Z,101774.81
2023-06-07T18:35:18.292Z,101767.34
2023-06-07T18:38:05.432Z,101775.69
2023-06-07T18:40:52.793Z,101776.72
2023-06-07T18:43:40.930Z,101775.31
2023-06-07T18:46:28.540Z,101773.00
2023-06-07T18:49:15.837Z,101773.19
2023-06-07T18:52:03.361Z,101782.41
2023-06-07T18:54:50.507Z,101775.78
2023-06-07T18:57:37.980Z,101777.22
2023-06-07T19:00:26.165Z,101772.25
2023-06-07T19:03:14.653Z,101767.25
2023-06-07T19:06:01.792Z,101779.19
2023-06-07T19:08:51.843Z,101776.09
2023-06-07T19:11:39.014Z,101781.00
2023-06-07T19:14:26.119Z,101773.69
2023-06-07T19:17:13.181Z,101775.34
2023-06-07T19:20:00.655Z,101769.94
2023-06-07T19:22:47.942Z,101779.13
2023-06-07T19:25:35.497Z,101769.44
2023-06-07T19:28:22.524Z,101774.81
2023-06-07T19:31:09.725Z,101777.66
2023-06-07T19:33:56.758Z,101781.06
2023-06-07T19:36:43.888Z,101780.75
2023-06-07T19:39:30.930Z,101775.88
2023-06-07T19:42:24.706Z,101778.16
2023-06-07T19:45:11.767Z,101775.66
2023-06-07T19:47:59.020Z,101775.81
2023-06-07T19:50:46.161Z,101777.16
2023-06-07T19:53:33.476Z,101775.94
2023-06-07T19:56:20.709Z,101774.63
2023-06-07T19:59:08.005Z,101762.69
2023-06-07T20:01:55.586Z,101766.44
2023-06-07T20:04:42.899Z,101774.63
2023-06-07T20:07:30.069Z,101763.28
2023-06-07T20:10:17.231Z,101767.06
2023-06-07T20:13:04.202Z,101753.09
2023-06-07T20:15:51.370Z,101760.00
2023-06-07T20:18:38.318Z,101763.63
2023-06-07T20:21:25.480Z,101763.72
2023-06-07T20:24:12.462Z,101764.06
2023-06-07T20:27:00.469Z,101748.03
2023-06-07T20:29:47.533Z,101759.38
2023-06-07T20:32:35.043Z,101760.44
2023-06-07T20:35:22.162Z,101757.84
2023-06-07T20:38:09.483Z,101759.91
2023-06-07T20:40:56.445Z,101763.97
2023-06-07T20:43:43.793Z,101764.44
2023-06-07T20:46:30.817Z,101767.19
2023-06-07T20:49:18.150Z,101763.13
2023-06-07T20:52:05.091Z,101762.16
2023-06-07T20:54:52.317Z,101764.78
2023-06-07T20:57:39.359Z,101760.44
2023-06-07T21:00:27.218Z,101731.78
2023-06-07T21:03:14.327Z,101756.19
2023-06-07T21:06:01.756Z,101751.94
2023-06-07T21:08:48.825Z,101742.84
2023-06-07T21:11:36.493Z,101756.91
2023-06-07T21:14:23.501Z,101747.91
2023-06-07T21:17:10.760Z,101755.19
2023-06-07T21:19:58.147Z,101755.19
2023-06-07T21:22:45.272Z,101751.84
2023-06-07T21:25:32.416Z,101748.44
2023-06-07T21:28:19.601Z,101749.41
2023-06-07T21:31:06.752Z,101751.19
2023-06-07T21:33:54.007Z,101750.44
2023-06-07T21:36:41.230Z,101748.75
2023-06-07T21:39:28.322Z,101745.31
2023-06-07T21:42:15.439Z,101754.44
2023-06-07T21:45:02.926Z,101753.72
2023-06-07T21:47:50.451Z,101760.16
2023-06-07T21:50:37.791Z,101764.41
2023-06-07T21:53:25.054Z,101723.41
2023-06-07T21:56:12.213Z,101761.41
2023-06-07T21:58:59.239Z,101756.78
2023-06-07T22:01:46.858Z,101759.22
2023-06-07T22:04:34.246Z,101759.00
2023-06-07T22:07:22.111Z,101753.56
2023-06-07T22:10:09.434Z,101740.25
2023-06-07T22:12:56.692Z,101747.16
2023-06-07T22:15:43.818Z,101748.88
2023-06-07T22:18:31.000Z,101753.28
2023-06-07T22:21:18.771Z,101748.03
2023-06-07T22:24:05.987Z,101747.19
2023-06-07T22:26:53.134Z,101736.56
2023-06-07T22:29:40.712Z,101742.00
2023-06-07T22:32:30.776Z,101753.56
2023-06-07T22:35:18.231Z,101755.38
2023-06-07T22:38:05.417Z,101740.19
2023-06-07T22:40:56.684Z,101741.06
2023-06-07T22:43:43.964Z,101748.03
2023-06-07T22:46:31.169Z,101748.19
2023-06-07T22:49:19.626Z,101749.84
2023-06-07T22:52:06.807Z,101736.56
2023-06-07T22:54:53.968Z,101732.22
2023-06-07T22:57:41.141Z,101750.59
2023-06-07T23:00:28.924Z,101745.88
2023-06-07T23:03:16.775Z,101741.25
2023-06-07T23:06:03.995Z,101739.25
2023-06-07T23:08:51.176Z,101747.91
2023-06-07T23:11:38.308Z,101736.28
2023-06-07T23:14:26.152Z,101729.41
2023-06-07T23:17:13.335Z,101740.50
2023-06-07T23:20:00.438Z,101743.09
2023-06-07T23:22:47.660Z,101740.25
2023-06-07T23:25:34.886Z,101750.97
2023-06-07T23:28:21.994Z,101760.56
2023-06-07T23:31:09.509Z,101763.25
2023-06-07T23:33:56.542Z,101773.97
2023-06-07T23:36:43.866Z,101779.31
2023-06-07T23:39:31.122Z,101775.78
2023-06-07T23:42:18.213Z,101783.91
2023-06-07T23:45:05.508Z,101777.66
2023-06-07T23:47:53.358Z,101767.38
2023-06-07T23:50:40.762Z,101768.16
2023-06-07T23:53:27.995Z,101777.66
2023-06-07T23:56:15.228Z,101773.28
2023-06-07T23:59:02.475Z,101754.06
